Time;durP1;ratioP1;P1;durP2;ratioP2;P2;SDS_P1;SDS_P2;PMS_P1;PMS_P2;Temp;Humidity;BMP_temperature;BMP_pressure;BME280_temperature;BME280_humidity;BME280_pressure;Samples;Min_cycle;Max_cycle;Signal;HPM_P1;HPM_P2
2022/03/30 00:02:15;;;;;;;10.20;7.20;;;14.00;90.30;;;;;;5031678;28;20235;-66
2022/03/30 00:04:40;;;;;;;15.30;7.50;;;14.10;90.30;;;;;;5055191;28;20228;-68
2022/03/30 00:07:06;;;;;;;10.07;6.83;;;14.00;90.30;;;;;;5038811;28;20205;-65
2022/03/30 00:09:34;;;;;;;10.03;6.93;;;14.00;90.40;;;;;;5035169;28;20288;-67
2022/03/30 00:12:00;;;;;;;13.33;7.37;;;14.10;90.30;;;;;;5027669;28;20224;-68
2022/03/30 00:14:26;;;;;;;15.23;7.43;;;14.10;90.10;;;;;;5019003;28;20456;-68
2022/03/30 00:16:52;;;;;;;10.33;7.87;;;14.10;90.40;;;;;;5045407;28;20267;-69
2022/03/30 00:19:19;;;;;;;12.67;7.10;;;14.00;90.40;;;;;;5025623;28;20213;-67
2022/03/30 00:21:45;;;;;;;9.00;6.90;;;14.00;90.30;;;;;;5013150;28;20448;-68
2022/03/30 00:24:11;;;;;;;10.00;7.00;;;14.10;90.40;;;;;;5049752;28;20454;-67
2022/03/30 00:26:37;;;;;;;9.57;7.03;;;14.10;90.40;;;;;;5035385;28;20468;-67
2022/03/30 00:29:04;;;;;;;11.63;7.87;;;14.10;90.20;;;;;;5029762;28;20270;-68
2022/03/30 00:31:33;;;;;;;8.83;6.63;;;14.10;90.30;;;;;;5049092;28;20456;-64
2022/03/30 00:33:59;;;;;;;21.47;8.60;;;14.00;90.30;;;;;;5026802;28;20467;-67
2022/03/30 00:36:24;;;;;;;8.70;6.20;;;14.00;90.30;;;;;;5029040;28;20455;-68
2022/03/30 00:38:50;;;;;;;9.70;6.83;;;14.00;90.40;;;;;;5028535;28;20224;-68
2022/03/30 00:41:16;;;;;;;10.00;6.97;;;13.90;90.70;;;;;;5027702;28;20891;-68
2022/03/30 00:43:42;;;;;;;11.77;6.90;;;13.90;90.90;;;;;;5043699;28;20231;-68
2022/03/30 00:46:10;;;;;;;10.87;7.17;;;13.90;90.80;;;;;;5032772;28;20327;-68
2022/03/30 00:48:36;;;;;;;9.73;6.60;;;13.90;90.70;;;;;;5029160;28;20232;-68
2022/03/30 00:51:02;;;;;;;12.30;7.37;;;13.90;90.80;;;;;;5027660;28;20466;-68
2022/03/30 00:53:27;;;;;;;11.27;6.70;;;13.80;90.70;;;;;;5028536;28;20231;-67
2022/03/30 00:55:54;;;;;;;10.23;6.90;;;13.80;90.70;;;;;;5036153;28;20260;-68
2022/03/30 00:58:22;;;;;;;13.73;7.13;;;13.90;90.80;;;;;;5028746;28;20212;-66
2022/03/30 01:00:48;;;;;;;9.77;7.60;;;13.80;90.80;;;;;;5041109;28;20451;-67
2022/03/30 01:03:14;;;;;;;9.00;6.27;;;13.90;90.90;;;;;;5019901;28;20464;-68
2022/03/30 01:05:39;;;;;;;9.97;6.73;;;13.90;90.80;;;;;;5041089;28;20470;-70
2022/03/30 01:08:05;;;;;;;12.77;7.20;;;13.90;90.80;;;;;;5030875;28;20216;-67
2022/03/30 01:10:31;;;;;;;9.07;6.40;;;13.90;90.90;;;;;;5041167;28;20707;-66
2022/03/30 01:12:57;;;;;;;9.47;6.53;;;13.90;91.00;;;;;;5024742;28;20597;-68
2022/03/30 01:15:23;;;;;;;10.50;7.00;;;13.90;91.00;;;;;;5027408;28;20714;-67
2022/03/30 01:17:49;;;;;;;9.77;6.77;;;13.90;91.00;;;;;;5022950;28;20518;-66
2022/03/30 01:20:21;;;;;;;11.97;7.40;;;13.90;91.10;;;;;;5028030;28;20239;-68
2022/03/30 01:22:47;;;;;;;10.63;7.30;;;13.90;91.00;;;;;;5014947;28;21012;-68
2022/03/30 01:25:13;;;;;;;9.50;7.07;;;13.90;91.00;;;;;;5034650;28;20467;-68
2022/03/30 01:27:39;;;;;;;13.17;6.93;;;13.80;90.90;;;;;;5038537;28;20456;-68
2022/03/30 01:33:00;;;;;;;10.47;5.77;;;13.80;91.00;;;;;;5052007;28;20218;-69
2022/03/30 01:35:26;;;;;;;10.10;7.20;;;13.70;90.90;;;;;;5030773;28;20462;-68
2022/03/30 01:37:52;;;;;;;11.03;7.80;;;13.60;91.00;;;;;;5030072;28;20458;-67
2022/03/30 01:40:18;;;;;;;11.87;7.70;;;13.50;91.20;;;;;;5041704;28;20454;-69
2022/03/30 01:42:43;;;;;;;9.80;7.07;;;13.40;91.40;;;;;;5036349;28;20208;-67
2022/03/30 01:45:11;;;;;;;12.17;7.87;;;13.40;91.50;;;;;;5028302;28;20832;-68
2022/03/30 01:47:40;;;;;;;11.93;7.97;;;13.30;91.80;;;;;;5022378;28;20290;-68
2022/03/30 01:50:09;;;;;;;10.03;6.83;;;13.30;91.80;;;;;;5022012;28;20457;-68
2022/03/30 01:52:35;;;;;;;11.50;8.43;;;13.30;91.90;;;;;;5025956;28;21008;-67
2022/03/30 01:55:01;;;;;;;10.50;7.20;;;13.20;91.90;;;;;;5040837;28;20470;-68
2022/03/30 01:57:27;;;;;;;8.77;6.67;;;13.20;92.00;;;;;;5026254;28;20460;-64
2022/03/30 01:59:52;;;;;;;11.93;8.13;;;13.30;92.00;;;;;;5043580;28;20220;-68
2022/03/30 02:02:18;;;;;;;11.17;6.50;;;13.30;91.80;;;;;;5011954;28;20221;-67
2022/03/30 02:04:44;;;;;;;13.80;7.37;;;13.40;91.90;;;;;;5022992;28;20228;-68
2022/03/30 02:07:10;;;;;;;14.00;7.83;;;13.40;91.80;;;;;;5028711;28;20208;-68
2022/03/30 02:09:38;;;;;;;11.23;8.00;;;13.40;91.80;;;;;;5042389;28;20561;-69
2022/03/30 02:12:05;;;;;;;10.37;7.20;;;13.40;91.80;;;;;;5031594;28;20588;-68
2022/03/30 02:14:31;;;;;;;10.70;7.37;;;13.40;91.80;;;;;;5025361;28;21049;-68
2022/03/30 02:16:57;;;;;;;11.77;8.00;;;13.40;92.10;;;;;;5020816;28;20451;-67
2022/03/30 02:19:23;;;;;;;11.03;7.23;;;13.40;91.90;;;;;;5039345;28;20306;-68
2022/03/30 02:21:49;;;;;;;10.70;7.40;;;13.40;92.00;;;;;;5035688;28;20226;-68
2022/03/30 02:24:14;;;;;;;12.70;7.10;;;13.40;92.00;;;;;;5030538;28;20458;-68
2022/03/30 02:26:40;;;;;;;11.70;7.47;;;13.40;91.80;;;;;;5036270;28;20565;-69
2022/03/30 02:29:06;;;;;;;10.03;7.50;;;13.40;91.90;;;;;;5041455;28;20215;-68
2022/03/30 02:31:33;;;;;;;10.80;7.00;;;13.40;91.90;;;;;;5038521;28;20224;-67
2022/03/30 02:33:59;;;;;;;10.30;7.87;;;13.40;91.80;;;;;;5045617;28;20486;-67
2022/03/30 02:36:24;;;;;;;10.27;7.23;;;13.40;92.10;;;;;;5036074;28;20467;-67
2022/03/30 02:38:50;;;;;;;10.30;7.60;;;13.40;92.00;;;;;;5036720;28;20320;-69
2022/03/30 02:41:16;;;;;;;11.70;7.30;;;13.40;91.90;;;;;;5023671;28;20686;-67
2022/03/30 02:43:42;;;;;;;15.30;7.70;;;13.40;92.00;;;;;;5041516;28;20247;-68
2022/03/30 02:46:07;;;;;;;11.43;7.33;;;13.40;92.20;;;;;;5036733;28;20231;-68
2022/03/30 02:48:35;;;;;;;10.40;8.30;;;13.40;92.30;;;;;;5024619;28;20555;-68
2022/03/30 02:51:03;;;;;;;10.90;7.77;;;13.30;92.50;;;;;;5020786;28;20217;-68
2022/03/30 02:53:30;;;;;;;17.97;7.80;;;13.20;92.60;;;;;;5042484;28;20466;-68
2022/03/30 02:55:56;;;;;;;11.23;7.80;;;13.20;92.80;;;;;;5033381;28;20467;-69
2022/03/30 02:58:23;;;;;;;11.97;7.80;;;13.10;93.30;;;;;;5046344;28;20876;-68
2022/03/30 03:00:49;;;;;;;12.40;8.30;;;13.10;93.10;;;;;;5041288;28;20463;-67
2022/03/30 03:03:14;;;;;;;11.67;8.00;;;13.10;92.90;;;;;;5032660;28;20490;-67
2022/03/30 03:05:42;;;;;;;11.83;8.43;;;13.10;93.00;;;;;;5015705;28;20315;-68
2022/03/30 03:08:10;;;;;;;10.87;7.50;;;13.10;93.00;;;;;;5022532;28;20228;-68
2022/03/30 03:10:40;;;;;;;12.50;7.93;;;13.10;93.10;;;;;;5048066;28;22653;-66
2022/03/30 03:13:06;;;;;;;12.13;8.30;;;13.10;93.10;;;;;;5037250;28;20479;-68
2022/03/30 03:15:34;;;;;;;14.33;8.87;;;13.10;93.30;;;;;;5043819;28;20490;-68
2022/03/30 03:18:03;;;;;;;12.70;7.87;;;13.00;93.10;;;;;;5027846;28;20458;-68
2022/03/30 03:20:30;;;;;;;17.67;10.60;;;13.00;93.40;;;;;;5011338;28;20448;-67
2022/03/30 03:22:56;;;;;;;15.73;8.80;;;12.90;93.40;;;;;;5010940;28;20452;-68
2022/03/30 03:25:22;;;;;;;13.87;8.10;;;12.90;93.50;;;;;;5011023;28;20559;-66
2022/03/30 03:27:48;;;;;;;14.47;8.83;;;12.90;93.60;;;;;;5032737;28;20865;-68
2022/03/30 03:30:14;;;;;;;14.40;9.10;;;12.70;94.10;;;;;;5035705;28;20462;-67
2022/03/30 03:32:41;;;;;;;16.90;8.80;;;12.70;94.40;;;;;;5028654;28;20248;-69
2022/03/30 03:35:09;;;;;;;13.17;8.20;;;12.50;94.90;;;;;;5017023;28;20463;-68
2022/03/30 03:37:36;;;;;;;12.17;8.13;;;12.60;94.50;;;;;;5013692;28;20454;-69
2022/03/30 03:40:03;;;;;;;14.33;9.07;;;12.60;94.40;;;;;;5030191;28;20974;-70
2022/03/30 03:42:29;;;;;;;14.93;9.50;;;12.60;94.50;;;;;;5028991;28;20458;-70
2022/03/30 03:44:54;;;;;;;17.13;10.20;;;12.60;94.60;;;;;;5045357;28;21014;-70
2022/03/30 03:47:20;;;;;;;17.13;9.53;;;12.60;94.60;;;;;;5033211;28;20270;-70
2022/03/30 03:49:46;;;;;;;20.10;11.23;;;12.40;95.10;;;;;;5031545;28;20221;-70
2022/03/30 03:52:12;;;;;;;14.57;8.70;;;12.30;95.40;;;;;;5017723;28;20221;-71
2022/03/30 03:54:37;;;;;;;19.10;10.30;;;12.20;95.40;;;;;;5044196;28;20307;-70
2022/03/30 03:57:03;;;;;;;20.40;11.43;;;12.10;95.60;;;;;;5030674;28;20216;-71
2022/03/30 03:59:29;;;;;;;19.07;10.87;;;12.10;96.00;;;;;;5008662;28;20221;-70
2022/03/30 04:01:55;;;;;;;19.97;10.37;;;11.90;96.10;;;;;;5037546;28;20458;-69
2022/03/30 04:04:20;;;;;;;18.83;10.80;;;11.90;96.50;;;;;;5036787;28;20369;-67
2022/03/30 04:06:46;;;;;;;19.23;11.57;;;11.90;96.10;;;;;;5039772;28;20244;-70
2022/03/30 04:09:12;;;;;;;19.57;11.27;;;11.90;96.10;;;;;;5029753;28;20688;-69
2022/03/30 04:11:38;;;;;;;18.67;10.73;;;11.90;96.10;;;;;;5039497;28;20229;-70
2022/03/30 04:14:04;;;;;;;21.67;12.43;;;11.90;96.10;;;;;;5029981;28;20223;-70
2022/03/30 04:16:29;;;;;;;21.23;11.27;;;11.90;96.50;;;;;;5012769;28;20222;-71
2022/03/30 04:18:55;;;;;;;22.43;11.63;;;11.90;96.00;;;;;;5029224;28;20465;-69
2022/03/30 04:21:21;;;;;;;20.77;12.20;;;11.80;96.30;;;;;;5021856;28;20241;-72
2022/03/30 04:23:47;;;;;;;21.80;12.80;;;11.70;96.30;;;;;;5038213;28;20823;-71
2022/03/30 04:26:13;;;;;;;22.50;12.60;;;11.70;96.60;;;;;;5040841;28;20479;-70
2022/03/30 04:28:42;;;;;;;23.57;13.57;;;11.50;96.80;;;;;;5035936;28;20217;-71
2022/03/30 04:31:08;;;;;;;23.23;12.97;;;11.50;97.10;;;;;;5036676;28;20248;-70
2022/03/30 04:33:35;;;;;;;21.43;11.77;;;11.40;97.40;;;;;;5037344;28;20463;-69
2022/03/30 04:36:02;;;;;;;23.00;13.13;;;11.30;97.70;;;;;;5029738;28;20455;-69
2022/03/30 04:38:27;;;;;;;20.80;11.67;;;11.20;97.90;;;;;;5041847;28;20467;-67
2022/03/30 04:40:53;;;;;;;21.60;11.97;;;11.20;98.00;;;;;;5049218;28;20528;-71
2022/03/30 04:43:18;;;;;;;25.47;11.57;;;11.20;98.20;;;;;;5045395;28;20220;-68
2022/03/30 04:45:44;;;;;;;21.90;12.47;;;11.20;98.20;;;;;;5042104;28;20715;-68
2022/03/30 04:48:10;;;;;;;26.47;12.20;;;11.20;98.20;;;;;;5036425;28;20572;-70
2022/03/30 04:50:35;;;;;;;27.90;13.40;;;11.10;98.40;;;;;;5029075;28;20252;-69
2022/03/30 04:53:01;;;;;;;23.33;13.30;;;11.00;98.60;;;;;;5031967;28;20220;-69
2022/03/30 04:55:27;;;;;;;21.83;12.17;;;11.00;98.50;;;;;;5046964;28;20236;-70
2022/03/30 04:57:53;;;;;;;19.87;12.00;;;11.10;98.60;;;;;;5027283;28;20306;-70
2022/03/30 05:00:19;;;;;;;26.13;13.83;;;11.10;98.70;;;;;;5019321;28;20259;-70
2022/03/30 05:02:45;;;;;;;23.07;12.80;;;11.10;98.60;;;;;;5041483;28;20453;-69
2022/03/30 05:05:11;;;;;;;21.67;13.93;;;11.00;98.80;;;;;;5038987;28;20478;-70
2022/03/30 05:07:38;;;;;;;23.07;11.70;;;11.00;98.90;;;;;;5033434;28;20212;-69
2022/03/30 05:10:10;;;;;;;25.10;13.13;;;11.00;99.00;;;;;;5016377;28;20228;-70
2022/03/30 05:12:36;;;;;;;24.27;12.70;;;11.00;99.00;;;;;;5036715;28;20448;-69
2022/03/30 05:15:02;;;;;;;25.13;13.40;;;11.00;98.90;;;;;;5026327;28;20463;-70
2022/03/30 05:17:27;;;;;;;25.77;12.97;;;10.90;99.40;;;;;;5031668;28;20255;-68
2022/03/30 05:19:53;;;;;;;20.60;11.80;;;10.90;99.30;;;;;;5018167;28;20833;-68
2022/03/30 05:22:19;;;;;;;25.10;14.60;;;10.80;99.70;;;;;;5011828;28;20743;-70
2022/03/30 05:24:44;;;;;;;22.10;12.70;;;10.70;99.90;;;;;;5036111;28;20232;-70
2022/03/30 05:27:11;;;;;;;22.50;12.90;;;10.70;99.90;;;;;;5044583;28;20252;-69
2022/03/30 05:29:37;;;;;;;21.87;12.47;;;10.70;99.90;;;;;;5014102;28;20213;-68
2022/03/30 05:32:04;;;;;;;22.47;12.73;;;10.70;99.90;;;;;;5020377;28;20461;-70
2022/03/30 05:34:29;;;;;;;24.20;12.73;;;10.80;99.90;;;;;;5014410;28;20460;-68
2022/03/30 05:36:57;;;;;;;19.53;11.20;;;10.80;99.90;;;;;;5023486;28;20459;-70
2022/03/30 05:39:22;;;;;;;23.03;13.87;;;10.70;99.90;;;;;;5032805;28;20244;-67
2022/03/30 05:41:48;;;;;;;25.63;14.07;;;10.80;99.90;;;;;;5035073;28;20477;-68
2022/03/30 05:44:14;;;;;;;26.63;13.63;;;10.80;99.90;;;;;;5030835;28;20283;-70
2022/03/30 05:46:39;;;;;;;22.63;12.60;;;10.80;99.90;;;;;;5031361;28;20272;-70
2022/03/30 05:49:06;;;;;;;24.33;13.30;;;10.80;99.90;;;;;;5030225;28;20220;-70
2022/03/30 05:51:32;;;;;;;25.57;13.33;;;10.80;99.90;;;;;;5027763;28;20236;-67
2022/03/30 05:53:58;;;;;;;25.67;12.97;;;10.80;99.90;;;;;;5033403;28;20564;-70
2022/03/30 05:57:07;;;;;;;24.20;12.27;;;10.80;99.70;;;;;;5023197;28;20469;-67
2022/03/30 05:59:15;;;;;;;21.87;11.87;;;10.90;99.50;;;;;;5021243;28;20459;-70
2022/03/30 06:01:41;;;;;;;21.43;12.77;;;10.90;99.60;;;;;;5028191;28;20512;-70
2022/03/30 06:04:07;;;;;;;27.60;12.53;;;11.00;99.30;;;;;;5041197;28;20463;-70
2022/03/30 06:06:34;;;;;;;20.60;13.00;;;11.00;99.30;;;;;;5038161;28;20468;-69
2022/03/30 06:09:02;;;;;;;25.80;13.07;;;11.00;99.00;;;;;;5031276;28;20989;-70
2022/03/30 06:11:28;;;;;;;21.33;12.00;;;11.00;98.90;;;;;;5013960;28;20504;-69
2022/03/30 06:13:53;;;;;;;26.40;13.20;;;11.10;99.30;;;;;;5031784;28;20864;-70
2022/03/30 06:16:19;;;;;;;25.00;13.40;;;11.10;99.00;;;;;;5031825;28;20213;-70
2022/03/30 06:18:45;;;;;;;22.57;12.47;;;11.10;99.10;;;;;;5026894;28;20710;-70
2022/03/30 06:21:12;;;;;;;25.30;13.70;;;11.10;98.90;;;;;;5030070;28;20443;-70
2022/03/30 06:23:37;;;;;;;21.73;12.63;;;11.10;99.00;;;;;;5037881;28;20228;-70
2022/03/30 06:26:05;;;;;;;22.60;12.40;;;11.10;99.00;;;;;;5037415;28;20478;-69
2022/03/30 06:28:30;;;;;;;22.63;12.73;;;11.10;99.10;;;;;;5039473;28;20217;-69
2022/03/30 06:30:56;;;;;;;22.83;13.30;;;11.10;99.30;;;;;;5021745;28;20451;-69
2022/03/30 06:33:22;;;;;;;22.67;13.57;;;11.00;99.60;;;;;;5016935;28;20574;-70
2022/03/30 06:35:48;;;;;;;26.37;13.33;;;11.00;99.40;;;;;;5045178;28;20457;-68
2022/03/30 06:38:14;;;;;;;24.13;12.07;;;10.90;99.80;;;;;;5031526;28;20215;-69
2022/03/30 06:40:40;;;;;;;22.90;12.50;;;10.80;99.90;;;;;;5035248;28;20314;-70
2022/03/30 06:43:06;;;;;;;27.07;13.33;;;10.70;99.90;;;;;;5044673;28;20537;-70
2022/03/30 06:45:31;;;;;;;22.77;12.17;;;10.60;99.90;;;;;;5034612;28;20227;-68
2022/03/30 06:47:57;;;;;;;28.40;13.10;;;10.70;99.90;;;;;;5036284;28;20224;-69
2022/03/30 06:50:24;;;;;;;23.17;13.27;;;10.70;99.90;;;;;;5037577;28;20215;-70
2022/03/30 06:52:50;;;;;;;26.60;13.17;;;10.70;99.90;;;;;;5036342;28;20673;-69
2022/03/30 06:55:15;;;;;;;25.57;12.83;;;10.60;99.90;;;;;;5019842;28;20487;-69
2022/03/30 06:57:42;;;;;;;27.50;14.60;;;10.60;99.90;;;;;;5031497;28;20473;-70
2022/03/30 07:00:12;;;;;;;23.17;12.90;;;10.60;99.90;;;;;;5043820;28;20461;-69
2022/03/30 07:02:38;;;;;;;26.47;12.57;;;10.50;99.90;;;;;;5038119;28;20961;-70
2022/03/30 07:05:04;;;;;;;24.63;12.70;;;10.50;99.90;;;;;;5033400;28;21020;-70
2022/03/30 07:10:15;;;;;;;22.47;11.57;;;10.50;99.90;;;;;;5035019;28;20459;-69
2022/03/30 07:12:50;;;;;;;20.77;12.80;;;10.50;99.90;;;;;;5043967;28;20961;-70
2022/03/30 07:15:18;;;;;;;25.93;12.87;;;10.50;99.90;;;;;;5033802;28;20268;-69
2022/03/30 07:17:51;;;;;;;26.57;12.50;;;10.50;99.90;;;;;;5027667;28;20456;-68
2022/03/30 07:20:19;;;;;;;20.07;12.60;;;10.50;99.90;;;;;;5027504;28;20512;-69
2022/03/30 07:22:47;;;;;;;25.73;13.73;;;10.50;99.90;;;;;;5032787;28;20533;-70
2022/03/30 07:25:14;;;;;;;26.13;14.00;;;10.60;99.90;;;;;;5029760;28;20488;-69
2022/03/30 07:27:42;;;;;;;22.37;12.30;;;10.60;99.90;;;;;;5034534;28;20504;-70
2022/03/30 07:30:10;;;;;;;24.80;13.57;;;10.60;99.90;;;;;;5035357;28;20461;-69
2022/03/30 07:32:40;;;;;;;21.70;13.33;;;10.60;99.90;;;;;;5034586;28;20511;-70
2022/03/30 07:35:11;;;;;;;23.97;13.47;;;10.60;99.90;;;;;;5014918;28;20463;-68
2022/03/30 07:37:38;;;;;;;20.10;12.80;;;10.70;99.90;;;;;;5034788;28;20473;-70
2022/03/30 07:40:06;;;;;;;21.30;11.77;;;10.70;99.90;;;;;;5033749;28;20454;-68
2022/03/30 07:42:32;;;;;;;23.60;12.97;;;10.70;99.90;;;;;;5048730;28;20523;-70
2022/03/30 07:44:58;;;;;;;29.33;13.20;;;10.70;99.90;;;;;;5030621;28;20457;-70
2022/03/30 07:47:25;;;;;;;25.13;13.87;;;10.70;99.90;;;;;;5035739;28;20986;-69
2022/03/30 07:49:51;;;;;;;27.20;14.20;;;10.70;99.90;;;;;;5027811;28;20298;-69
2022/03/30 07:52:17;;;;;;;23.37;13.63;;;10.70;99.90;;;;;;5029948;28;20988;-70
2022/03/30 07:54:43;;;;;;;25.00;13.00;;;10.70;99.90;;;;;;5030610;28;20507;-68
2022/03/30 07:57:09;;;;;;;30.60;15.27;;;10.70;99.90;;;;;;5029169;28;20200;-68
2022/03/30 07:59:35;;;;;;;24.97;13.93;;;10.70;99.90;;;;;;5024823;28;20689;-71
2022/03/30 08:02:00;;;;;;;25.83;14.43;;;10.70;99.90;;;;;;5030818;28;20490;-69
2022/03/30 08:04:26;;;;;;;35.20;15.47;;;10.70;99.90;;;;;;5028455;28;20213;-70
2022/03/30 08:06:52;;;;;;;30.03;16.17;;;10.70;99.90;;;;;;5028764;28;20228;-70
2022/03/30 08:09:19;;;;;;;21.80;13.73;;;10.70;99.90;;;;;;5026682;28;20223;-69
2022/03/30 08:11:45;;;;;;;26.70;13.47;;;10.70;99.90;;;;;;5026267;28;20554;-67
2022/03/30 08:14:12;;;;;;;31.10;16.00;;;10.80;99.90;;;;;;5022434;28;20813;-68
2022/03/30 08:16:39;;;;;;;27.30;14.20;;;10.80;99.90;;;;;;5038559;28;20470;-69
2022/03/30 08:19:05;;;;;;;28.57;14.87;;;10.80;99.90;;;;;;5025053;28;20459;-70
2022/03/30 08:24:15;;;;;;;29.73;15.83;;;10.80;99.90;;;;;;5028823;28;20956;-70
2022/03/30 08:26:41;;;;;;;23.97;14.90;;;10.80;99.90;;;;;;5031945;28;20466;-70
2022/03/30 08:29:09;;;;;;;27.77;13.23;;;10.80;99.90;;;;;;5034725;28;20789;-70
2022/03/30 08:31:35;;;;;;;27.80;14.67;;;10.80;99.90;;;;;;5026461;28;20464;-69
2022/03/30 08:34:01;;;;;;;24.07;12.70;;;10.90;99.90;;;;;;5025688;28;20468;-71
2022/03/30 08:36:29;;;;;;;27.30;14.33;;;10.90;99.90;;;;;;5025723;28;20958;-70
2022/03/30 08:38:59;;;;;;;23.30;12.93;;;10.90;99.90;;;;;;5034208;28;20513;-70
2022/03/30 08:41:25;;;;;;;28.70;13.80;;;10.90;99.90;;;;;;5026053;28;20456;-70
2022/03/30 08:43:52;;;;;;;21.60;12.70;;;10.90;99.90;;;;;;5029788;28;21056;-69
2022/03/30 08:46:18;;;;;;;63.57;28.70;;;11.00;99.90;;;;;;5041288;28;20475;-68
2022/03/30 08:48:44;;;;;;;38.50;20.30;;;10.90;99.90;;;;;;5034165;28;20506;-69
2022/03/30 08:51:10;;;;;;;25.13;15.07;;;11.00;99.90;;;;;;5029485;28;20220;-70
2022/03/30 08:53:37;;;;;;;31.30;15.00;;;11.00;99.90;;;;;;5032936;28;20231;-68
2022/03/30 08:56:05;;;;;;;28.30;15.00;;;11.00;99.90;;;;;;5028057;28;20902;-69
2022/03/30 08:58:31;;;;;;;22.77;13.70;;;11.10;99.90;;;;;;5033577;28;20478;-69
2022/03/30 09:01:07;;;;;;;20.87;12.67;;;11.10;99.90;;;;;;5016300;28;20463;-68
2022/03/30 09:03:33;;;;;;;18.73;12.17;;;11.10;99.90;;;;;;5018569;28;20304;-70
2022/03/30 09:06:00;;;;;;;22.80;13.23;;;11.10;99.90;;;;;;5032046;28;21105;-69
2022/03/30 09:08:27;;;;;;;22.97;13.30;;;11.00;99.90;;;;;;5024450;28;20242;-70
2022/03/30 09:10:55;;;;;;;26.57;13.83;;;11.00;99.90;;;;;;5027140;28;20880;-69
2022/03/30 09:13:22;;;;;;;19.63;11.60;;;10.90;99.90;;;;;;5033636;28;20478;-68
2022/03/30 09:15:49;;;;;;;21.27;12.37;;;10.90;99.90;;;;;;5031122;28;20466;-69
2022/03/30 09:18:16;;;;;;;26.47;11.87;;;10.90;99.90;;;;;;5031161;28;20516;-70
2022/03/30 09:20:44;;;;;;;27.80;12.90;;;10.90;99.90;;;;;;5030376;28;20546;-70
2022/03/30 09:23:12;;;;;;;18.97;11.50;;;10.90;99.90;;;;;;5046515;28;20454;-70
2022/03/30 09:25:42;;;;;;;17.10;11.00;;;10.90;99.90;;;;;;5026196;28;20447;-70
2022/03/30 09:28:09;;;;;;;22.97;12.20;;;10.90;99.90;;;;;;5027287;28;20522;-68
2022/03/30 09:30:35;;;;;;;20.57;11.50;;;10.90;99.90;;;;;;5039447;28;20463;-70
2022/03/30 09:33:01;;;;;;;21.10;12.50;;;10.80;99.90;;;;;;5028250;28;20609;-70
2022/03/30 09:35:33;;;;;;;17.87;11.20;;;10.80;99.90;;;;;;5024691;28;20492;-70
2022/03/30 09:38:08;;;;;;;20.87;10.97;;;10.80;99.90;;;;;;5020401;28;20637;-70
2022/03/30 09:40:55;;;;;;;19.53;10.90;;;10.80;99.90;;;;;;5040050;28;20470;-69
2022/03/30 09:43:29;;;;;;;17.80;10.63;;;10.70;99.90;;;;;;5023732;28;20440;-70
2022/03/30 09:46:06;;;;;;;23.70;11.20;;;10.60;99.90;;;;;;5023022;28;20474;-70
2022/03/30 09:48:43;;;;;;;18.57;10.00;;;10.70;99.90;;;;;;5029060;28;20459;-69
2022/03/30 09:51:09;;;;;;;18.43;10.93;;;10.80;99.90;;;;;;5025430;28;20492;-71
2022/03/30 09:53:36;;;;;;;19.00;11.57;;;10.80;99.90;;;;;;5026522;28;20468;-69
2022/03/30 09:56:04;;;;;;;15.90;9.67;;;10.80;99.90;;;;;;5027355;28;20219;-70
2022/03/30 09:58:34;;;;;;;16.13;9.57;;;10.80;99.90;;;;;;5012009;28;20507;-68
2022/03/30 10:01:09;;;;;;;19.13;10.30;;;10.90;99.90;;;;;;5027051;28;20474;-68
2022/03/30 10:03:42;;;;;;;17.97;10.50;;;10.80;99.90;;;;;;5019775;28;20482;-69
2022/03/30 10:06:11;;;;;;;19.93;10.60;;;10.90;99.90;;;;;;5020027;28;20503;-68
2022/03/30 10:08:43;;;;;;;20.30;9.93;;;10.90;99.90;;;;;;5012741;28;20839;-70
2022/03/30 10:11:12;;;;;;;17.27;10.20;;;11.00;99.90;;;;;;5025246;28;20533;-68
2022/03/30 10:13:39;;;;;;;16.30;10.20;;;10.90;99.90;;;;;;5013869;28;20877;-68
2022/03/30 10:16:08;;;;;;;18.70;11.30;;;10.90;99.90;;;;;;5033607;28;20471;-70
2022/03/30 10:18:35;;;;;;;18.43;10.57;;;10.90;99.90;;;;;;5028941;28;20490;-70
2022/03/30 10:21:19;;;;;;;14.93;10.03;;;10.90;99.90;;;;;;5028758;28;20461;-69
2022/03/30 10:24:09;;;;;;;18.43;10.50;;;10.90;99.90;;;;;;5028895;28;20475;-70
2022/03/30 10:27:00;;;;;;;15.97;9.47;;;10.90;99.90;;;;;;5015908;28;20471;-70
2022/03/30 10:29:29;;;;;;;18.80;9.67;;;11.00;99.90;;;;;;5028401;28;21049;-70
2022/03/30 10:32:13;;;;;;;18.77;11.03;;;10.90;99.90;;;;;;5025699;28;20458;-70
2022/03/30 10:34:42;;;;;;;17.40;10.90;;;10.90;99.90;;;;;;5024727;28;20446;-70
2022/03/30 10:37:09;;;;;;;15.80;9.93;;;11.00;99.90;;;;;;5030017;28;20463;-70
2022/03/30 10:40:03;;;;;;;19.10;11.33;;;11.00;99.90;;;;;;5027568;28;20461;-70
2022/03/30 10:42:54;;;;;;;17.30;9.33;;;11.00;99.90;;;;;;5027147;28;20456;-70
2022/03/30 10:45:29;;;;;;;16.83;9.10;;;11.00;99.90;;;;;;5030282;28;20483;-70
2022/03/30 10:48:19;;;;;;;21.57;10.03;;;11.00;99.90;;;;;;5031749;28;20989;-70
2022/03/30 10:50:54;;;;;;;15.27;9.70;;;11.00;99.90;;;;;;5023988;28;20444;-69
2022/03/30 10:53:33;;;;;;;;;;;;;;;;;;;;;
2022/03/30 10:56:07;;;;;;;15.10;9.43;;;11.20;99.90;;;;;;5030285;28;20577;-69
2022/03/30 10:58:36;;;;;;;14.93;9.53;;;11.20;99.90;;;;;;5019279;28;20462;-70
2022/03/30 11:01:14;;;;;;;15.70;9.40;;;11.20;99.90;;;;;;5021248;28;20478;-70
2022/03/30 11:03:59;;;;;;;15.77;9.43;;;11.20;99.90;;;;;;5028637;28;20446;-69
2022/03/30 11:06:25;;;;;;;15.30;9.90;;;11.20;99.90;;;;;;5025471;28;20471;-70
2022/03/30 11:08:55;;;;;;;16.80;10.03;;;11.20;99.90;;;;;;5029031;28;21015;-70
2022/03/30 11:11:27;;;;;;;18.20;9.47;;;11.10;99.90;;;;;;5014969;28;20462;-70
2022/03/30 11:14:21;;;;;;;17.07;8.90;;;11.30;99.90;;;;;;5028137;28;20474;-69
2022/03/30 11:16:48;;;;;;;15.30;8.27;;;11.30;99.90;;;;;;5029145;28;20485;-70
2022/03/30 11:19:14;;;;;;;15.80;9.60;;;11.40;99.90;;;;;;5026090;28;20482;-70
2022/03/30 11:21:53;;;;;;;17.00;10.30;;;11.40;99.90;;;;;;5021656;28;20447;-69
2022/03/30 11:24:20;;;;;;;15.50;8.87;;;11.40;99.90;;;;;;5030702;28;20228;-69
2022/03/30 11:26:48;;;;;;;14.67;9.10;;;11.30;99.90;;;;;;5042344;28;20470;-70
2022/03/30 11:29:42;;;;;;;19.53;9.90;;;11.40;99.90;;;;;;5032624;28;21004;-68
2022/03/30 11:32:25;;;;;;;16.63;9.70;;;11.40;99.90;;;;;;5047602;28;20535;-69
2022/03/30 11:34:55;;;;;;;14.90;9.20;;;11.50;99.90;;;;;;5036566;28;20458;-70
2022/03/30 11:37:33;;;;;;;17.03;9.53;;;11.50;99.90;;;;;;5037313;28;20512;-69
2022/03/30 11:40:22;;;;;;;15.70;9.70;;;11.60;99.90;;;;;;5035803;28;20442;-69
2022/03/30 11:42:50;;;;;;;12.57;8.30;;;11.60;99.90;;;;;;5025768;28;20451;-68
2022/03/30 11:45:21;;;;;;;16.67;9.30;;;11.70;99.90;;;;;;5043268;28;20652;-70
2022/03/30 11:47:56;;;;;;;17.50;10.80;;;11.70;99.90;;;;;;5034071;28;20477;-70
2022/03/30 11:50:35;;;;;;;15.17;9.07;;;11.60;99.90;;;;;;5030162;28;20461;-70
2022/03/30 11:53:04;;;;;;;13.80;8.53;;;11.60;99.90;;;;;;5035951;28;20455;-70
2022/03/30 11:55:51;;;;;;;15.80;8.77;;;11.70;99.90;;;;;;5028299;28;20451;-69
2022/03/30 11:58:32;;;;;;;13.37;8.97;;;11.70;99.90;;;;;;5034481;28;20497;-69
2022/03/30 12:01:00;;;;;;;12.13;8.00;;;11.80;99.90;;;;;;5033458;28;20473;-69
2022/03/30 12:03:26;;;;;;;12.97;7.90;;;11.80;99.90;;;;;;5004075;28;20453;-69
2022/03/30 12:06:03;;;;;;;12.17;7.27;;;11.90;99.90;;;;;;5040570;28;20971;-69
2022/03/30 12:08:42;;;;;;;14.30;8.33;;;11.90;99.90;;;;;;5026055;28;20898;-69
2022/03/30 12:11:07;;;;;;;11.57;8.00;;;11.90;99.90;;;;;;5050110;28;20458;-70
2022/03/30 12:13:33;;;;;;;13.47;8.23;;;11.90;99.90;;;;;;5035148;28;20524;-70
2022/03/30 12:16:06;;;;;;;11.00;7.33;;;11.80;99.90;;;;;;5033308;28;20246;-70
2022/03/30 12:18:40;;;;;;;12.57;8.93;;;11.80;99.90;;;;;;5036678;28;20215;-70
2022/03/30 12:21:05;;;;;;;18.73;11.07;;;11.90;99.90;;;;;;5029817;28;20856;-70
2022/03/30 12:23:31;;;;;;;18.70;9.60;;;11.80;99.90;;;;;;5038596;28;20451;-68
2022/03/30 12:25:57;;;;;;;16.37;9.97;;;11.90;99.90;;;;;;5029934;28;20361;-69
2022/03/30 12:28:33;;;;;;;15.27;8.17;;;11.90;99.90;;;;;;5021499;28;20225;-69
2022/03/30 12:31:00;;;;;;;13.23;9.07;;;11.90;99.90;;;;;;5031133;28;20226;-70
2022/03/30 12:33:26;;;;;;;12.20;8.00;;;11.90;99.90;;;;;;5033082;28;20475;-70
2022/03/30 12:35:53;;;;;;;10.90;7.13;;;11.90;99.90;;;;;;5031006;28;21040;-69
2022/03/30 12:38:24;;;;;;;12.50;7.10;;;11.80;99.90;;;;;;5031306;28;20227;-69
2022/03/30 12:40:53;;;;;;;9.87;6.80;;;11.90;99.90;;;;;;5032522;28;20451;-69
2022/03/30 12:43:27;;;;;;;13.33;7.50;;;11.90;99.90;;;;;;5041404;28;20759;-68
2022/03/30 12:45:59;;;;;;;11.23;8.07;;;11.90;99.90;;;;;;5035797;28;20471;-70
2022/03/30 12:48:30;;;;;;;13.00;7.10;;;11.90;99.90;;;;;;5020320;28;20494;-69